Time;durP1;ratioP1;P1;durP2;ratioP2;P2;SDS_P1;SDS_P2;PMS_P1;PMS_P2;Temp;Humidity;BMP_temperature;BMP_pressure;BME280_temperature;BME280_humidity;BME280_pressure;Samples;Min_cycle;Max_cycle;Signal;HPM_P1;HPM_P2
2022/03/07 04:00:56;;;;;;;1.20;1.10;;;2.90;53.10;;;;;;5844980;23;20889;-68
2022/03/07 04:03:22;;;;;;;1.50;1.40;;;2.90;53.30;;;;;;4996171;28;20849;-68
2022/03/07 04:05:49;;;;;;;1.30;1.20;;;2.90;53.30;;;;;;4997515;28;20849;-69
2022/03/07 04:08:16;;;;;;;1.30;1.20;;;2.90;53.30;;;;;;4997727;28;20451;-69
2022/03/07 04:10:42;;;;;;;1.30;1.20;;;2.60;53.60;;;;;;4994658;28;20461;-69
2022/03/07 04:13:09;;;;;;;1.30;1.20;;;2.60;54.00;;;;;;4979183;28;20488;-69
2022/03/07 04:15:38;;;;;;;1.40;1.30;;;2.60;54.00;;;;;;4977626;28;20936;-69
2022/03/07 04:18:07;;;;;;;1.43;1.33;;;2.60;54.00;;;;;;4977910;28;20477;-69
2022/03/07 04:20:34;;;;;;;1.57;1.47;;;2.60;53.80;;;;;;4977693;28;20485;-69
2022/03/07 04:23:01;;;;;;;1.10;1.00;;;2.50;54.10;;;;;;4977464;28;21008;-69
2022/03/07 04:25:28;;;;;;;1.40;1.30;;;2.50;54.00;;;;;;4977792;28;20457;-69
2022/03/07 04:27:55;;;;;;;1.30;1.20;;;2.50;54.10;;;;;;4977650;28;20540;-69
2022/03/07 04:30:22;;;;;;;1.70;1.60;;;2.50;54.20;;;;;;4977602;28;20453;-68
2022/03/07 04:32:49;;;;;;;1.20;1.10;;;2.50;54.10;;;;;;4977551;28;20452;-69
2022/03/07 04:35:17;;;;;;;1.33;1.23;;;2.40;54.30;;;;;;4977465;28;20446;-68
2022/03/07 04:37:44;;;;;;;1.50;1.40;;;2.30;54.80;;;;;;4977505;28;20488;-68
2022/03/07 04:40:12;;;;;;;1.50;1.40;;;2.40;54.60;;;;;;4977459;28;20473;-68
2022/03/07 04:42:39;;;;;;;1.67;1.57;;;2.30;54.60;;;;;;4976978;28;20985;-68
2022/03/07 04:45:07;;;;;;;1.40;1.30;;;2.40;54.60;;;;;;4977441;28;20494;-68
2022/03/07 04:47:34;;;;;;;1.50;1.40;;;2.40;54.50;;;;;;4977345;28;20454;-68
2022/03/07 04:50:02;;;;;;;1.40;1.30;;;2.40;54.50;;;;;;4977199;28;20445;-69
2022/03/07 04:52:30;;;;;;;1.60;1.50;;;2.40;54.60;;;;;;4977158;28;20529;-69
2022/03/07 04:54:56;;;;;;;1.60;1.50;;;2.40;54.60;;;;;;4976878;28;20946;-69
2022/03/07 04:57:23;;;;;;;1.67;1.57;;;2.40;54.50;;;;;;4976706;28;20814;-69
2022/03/07 04:59:50;;;;;;;1.60;1.50;;;2.40;54.70;;;;;;4977091;28;20486;-68
2022/03/07 05:02:16;;;;;;;1.90;1.80;;;2.40;54.70;;;;;;4976624;28;20477;-69
2022/03/07 05:04:43;;;;;;;1.50;1.40;;;2.30;54.80;;;;;;4976960;28;20469;-68
2022/03/07 05:07:10;;;;;;;1.50;1.40;;;2.20;55.20;;;;;;4976881;28;20496;-68
2022/03/07 05:09:38;;;;;;;1.47;1.37;;;2.30;55.20;;;;;;4976884;28;20446;-68
2022/03/07 05:12:05;;;;;;;1.50;1.40;;;2.20;55.20;;;;;;4976576;28;21012;-69
2022/03/07 05:14:32;;;;;;;1.43;1.33;;;2.20;55.30;;;;;;4976453;28;20457;-69
2022/03/07 05:16:58;;;;;;;1.37;1.27;;;2.10;55.30;;;;;;4976806;28;20453;-68
2022/03/07 05:19:25;;;;;;;1.70;1.60;;;1.90;56.10;;;;;;4976716;28;20454;-69
2022/03/07 05:21:52;;;;;;;1.40;1.30;;;2.00;56.10;;;;;;4976445;28;20486;-68
2022/03/07 05:24:18;;;;;;;1.60;1.50;;;2.10;56.10;;;;;;4976670;28;20449;-68
2022/03/07 05:26:46;;;;;;;1.43;1.33;;;2.10;56.00;;;;;;4976676;28;20546;-68
2022/03/07 05:29:14;;;;;;;1.40;1.30;;;2.10;55.90;;;;;;4976624;28;20497;-69
2022/03/07 05:31:40;;;;;;;1.43;1.33;;;2.20;56.00;;;;;;4976515;28;20541;-69
2022/03/07 05:34:07;;;;;;;1.43;1.33;;;2.20;56.00;;;;;;4976428;28;20457;-68
2022/03/07 05:36:34;;;;;;;1.57;1.47;;;2.20;56.00;;;;;;4976243;28;20449;-69
2022/03/07 05:39:00;;;;;;;1.57;1.47;;;2.20;56.10;;;;;;4976487;28;20450;-69
2022/03/07 05:41:27;;;;;;;1.73;1.63;;;2.10;56.50;;;;;;4977143;28;20490;-68
2022/03/07 05:43:55;;;;;;;1.80;1.70;;;2.10;56.90;;;;;;4976304;28;20450;-69
2022/03/07 05:46:22;;;;;;;1.70;1.60;;;2.00;57.10;;;;;;4976206;28;20471;-68
2022/03/07 05:48:48;;;;;;;2.10;2.00;;;2.00;57.50;;;;;;4976122;28;20442;-68
2022/03/07 05:51:22;;;;;;;1.60;1.50;;;1.80;57.80;;;;;;4976063;28;20470;-69
2022/03/07 05:53:49;;;;;;;1.70;1.60;;;1.80;58.30;;;;;;4975921;28;20435;-69
2022/03/07 05:56:15;;;;;;;1.80;1.70;;;1.80;58.10;;;;;;4976311;28;20454;-68
2022/03/07 05:58:42;;;;;;;1.63;1.53;;;1.80;58.40;;;;;;4976058;28;20457;-69
2022/03/07 06:01:10;;;;;;;1.60;1.50;;;1.90;58.50;;;;;;4975720;28;20501;-69
2022/03/07 06:03:37;;;;;;;1.73;1.33;;;1.90;58.50;;;;;;4975950;28;20528;-69
2022/03/07 06:06:03;;;;;;;1.67;1.57;;;2.00;58.40;;;;;;4975798;28;20458;-68
2022/03/07 06:08:30;;;;;;;1.87;1.77;;;2.00;58.20;;;;;;4975859;28;20472;-68
2022/03/07 06:10:57;;;;;;;1.80;1.70;;;2.10;58.30;;;;;;4976175;28;20470;-69
2022/03/07 06:13:24;;;;;;;1.67;1.57;;;2.10;58.50;;;;;;4976660;28;20509;-68
2022/03/07 06:15:51;;;;;;;1.60;1.50;;;2.10;58.30;;;;;;4976839;28;20454;-69
2022/03/07 06:18:19;;;;;;;1.60;1.50;;;2.20;58.10;;;;;;4977413;28;20457;-68
2022/03/07 06:20:45;;;;;;;1.67;1.57;;;2.40;57.70;;;;;;4976745;28;20490;-69
2022/03/07 06:23:12;;;;;;;1.60;1.50;;;2.50;57.50;;;;;;4977543;28;20450;-68
2022/03/07 06:25:39;;;;;;;1.70;1.60;;;2.50;57.30;;;;;;4976711;28;20450;-69
2022/03/07 06:28:06;;;;;;;1.40;1.30;;;2.50;57.30;;;;;;4977279;28;20452;-69
2022/03/07 06:30:32;;;;;;;1.67;1.57;;;2.50;57.20;;;;;;4976871;28;20450;-69
2022/03/07 06:32:59;;;;;;;1.90;1.80;;;2.70;57.50;;;;;;4976776;28;20953;-69
2022/03/07 06:35:27;;;;;;;1.50;1.40;;;3.40;56.70;;;;;;4976418;28;20949;-69
2022/03/07 06:37:54;;;;;;;1.70;1.60;;;4.30;54.20;;;;;;4976668;28;20477;-69
2022/03/07 06:40:23;;;;;;;1.40;1.30;;;5.40;52.10;;;;;;4976660;28;20481;-72
2022/03/07 06:42:50;;;;;;;1.30;1.20;;;6.40;49.40;;;;;;4976648;28;20489;-70
2022/03/07 06:45:18;;;;;;;1.67;1.57;;;7.10;48.10;;;;;;4976744;28;20449;-69
2022/03/07 06:47:45;;;;;;;1.17;1.07;;;7.90;46.70;;;;;;4976916;28;20819;-70
2022/03/07 06:50:12;;;;;;;1.10;1.00;;;8.80;45.00;;;;;;4976564;28;20457;-70
2022/03/07 06:52:41;;;;;;;1.20;1.10;;;9.80;43.10;;;;;;4976230;28;20496;-71
2022/03/07 06:55:08;;;;;;;1.17;1.07;;;10.80;41.20;;;;;;4975946;28;20442;-71
2022/03/07 06:57:35;;;;;;;1.40;1.30;;;11.70;39.70;;;;;;4976161;28;20456;-71
2022/03/07 07:00:04;;;;;;;1.20;1.10;;;12.60;38.40;;;;;;4975653;28;20999;-71
2022/03/07 07:02:31;;;;;;;1.20;1.10;;;13.20;37.20;;;;;;4975553;28;20999;-71
2022/03/07 07:04:58;;;;;;;1.30;1.20;;;13.70;36.10;;;;;;4974987;28;20457;-71
2022/03/07 07:07:25;;;;;;;1.30;1.20;;;14.00;35.80;;;;;;4974918;28;20458;-71
2022/03/07 07:09:53;;;;;;;1.13;1.03;;;14.20;35.50;;;;;;4974809;28;20441;-70
2022/03/07 07:12:19;;;;;;;1.40;1.30;;;14.60;34.60;;;;;;4974505;28;20466;-71
2022/03/07 07:14:46;;;;;;;1.27;1.17;;;15.20;34.20;;;;;;4974761;28;20449;-71
2022/03/07 07:17:13;;;;;;;1.30;1.20;;;15.00;33.40;;;;;;4974428;28;20946;-70
2022/03/07 07:19:39;;;;;;;1.20;1.10;;;15.60;33.00;;;;;;4974548;28;20957;-70
2022/03/07 07:22:06;;;;;;;1.23;1.13;;;15.60;32.40;;;;;;4974730;28;20497;-71
2022/03/07 07:24:33;;;;;;;1.20;1.10;;;15.70;32.00;;;;;;4974394;28;20855;-70
2022/03/07 07:27:01;;;;;;;1.60;1.50;;;15.80;32.20;;;;;;4974787;28;20446;-71
2022/03/07 07:29:27;;;;;;;1.37;1.27;;;16.20;32.20;;;;;;4974740;28;20469;-71
2022/03/07 07:31:54;;;;;;;1.07;0.97;;;16.00;31.60;;;;;;4974611;28;20466;-69
2022/03/07 07:34:22;;;;;;;1.20;1.10;;;16.40;31.60;;;;;;4975225;28;20597;-70
2022/03/07 07:36:49;;;;;;;1.20;1.10;;;17.10;31.00;;;;;;4974343;28;20450;-70
2022/03/07 07:39:16;;;;;;;1.20;1.10;;;18.00;30.10;;;;;;4974680;28;20497;-70
2022/03/07 07:41:43;;;;;;;1.20;1.10;;;18.80;29.20;;;;;;4974253;28;20490;-73
2022/03/07 07:44:11;;;;;;;1.00;0.90;;;18.90;28.70;;;;;;4974569;28;20445;-70
2022/03/07 07:46:38;;;;;;;1.70;1.60;;;18.90;28.60;;;;;;4974354;28;20834;-70
2022/03/07 07:49:05;;;;;;;1.30;1.20;;;18.70;28.90;;;;;;4974610;28;20505;-70
2022/03/07 07:51:32;;;;;;;1.20;1.10;;;18.80;28.70;;;;;;4974491;28;20461;-68
2022/03/07 07:54:00;;;;;;;1.10;1.00;;;18.50;28.70;;;;;;4974536;28;20454;-70
2022/03/07 07:56:26;;;;;;;1.20;1.10;;;18.00;29.40;;;;;;4974449;28;20450;-70
2022/03/07 07:58:54;;;;;;;1.20;1.10;;;17.20;29.60;;;;;;4974168;28;20821;-71
2022/03/07 08:01:23;;;;;;;1.20;1.10;;;16.40;30.60;;;;;;4974329;28;20923;-71
2022/03/07 08:03:50;;;;;;;1.17;1.07;;;16.10;31.20;;;;;;4974440;28;20544;-71
2022/03/07 08:06:16;;;;;;;1.40;1.30;;;15.00;32.50;;;;;;4974458;28;20538;-71
2022/03/07 08:08:43;;;;;;;1.27;1.17;;;13.90;33.90;;;;;;4974376;28;20453;-70
2022/03/07 08:11:10;;;;;;;1.30;1.20;;;13.00;34.80;;;;;;4974331;28;20811;-71
2022/03/07 08:13:36;;;;;;;1.40;1.30;;;11.70;36.90;;;;;;4974394;28;20454;-71
2022/03/07 08:16:03;;;;;;;1.10;1.00;;;10.90;37.90;;;;;;4974360;28;20450;-70
2022/03/07 08:18:31;;;;;;;1.23;1.13;;;10.30;39.20;;;;;;4974011;28;20901;-70
2022/03/07 08:20:59;;;;;;;1.33;1.23;;;9.50;39.90;;;;;;4974210;28;20493;-71
2022/03/07 08:23:26;;;;;;;1.10;1.00;;;8.80;41.10;;;;;;4974375;28;20450;-70
2022/03/07 08:25:53;;;;;;;1.20;1.10;;;8.20;42.40;;;;;;4974268;28;20497;-70
2022/03/07 08:28:20;;;;;;;1.37;1.27;;;7.70;43.70;;;;;;4973936;28;20454;-70
2022/03/07 08:30:47;;;;;;;1.40;1.30;;;7.30;44.50;;;;;;4974106;28;20505;-71
2022/03/07 08:33:14;;;;;;;1.30;1.20;;;7.10;45.10;;;;;;4974154;28;20453;-70
2022/03/07 08:35:42;;;;;;;1.30;1.20;;;6.80;45.60;;;;;;4973904;28;20470;-71
2022/03/07 08:38:08;;;;;;;1.40;1.30;;;6.40;46.50;;;;;;4973835;28;20458;-70
2022/03/07 08:40:35;;;;;;;1.47;1.37;;;5.90;46.90;;;;;;4973936;28;20457;-71
2022/03/07 08:43:02;;;;;;;1.63;1.53;;;5.60;47.70;;;;;;4974144;28;20446;-70
2022/03/07 08:45:28;;;;;;;1.20;1.10;;;5.10;48.20;;;;;;4974149;28;20450;-70
2022/03/07 08:47:56;;;;;;;1.80;1.70;;;5.20;48.60;;;;;;4974210;28;20989;-70
2022/03/07 08:50:23;;;;;;;1.50;1.40;;;5.00;48.50;;;;;;4977753;28;20532;-70
2022/03/07 08:52:51;;;;;;;1.63;1.53;;;4.60;49.20;;;;;;4977918;28;20446;-70
2022/03/07 08:55:18;;;;;;;1.40;1.30;;;4.60;49.30;;;;;;4977520;28;20485;-70
2022/03/07 08:57:44;;;;;;;1.47;1.37;;;4.60;49.70;;;;;;4977440;28;20519;-70
2022/03/07 09:00:13;;;;;;;1.50;1.40;;;4.70;50.00;;;;;;4977435;28;20445;-70
2022/03/07 09:02:40;;;;;;;1.40;1.30;;;4.80;50.50;;;;;;4976835;28;20496;-70
2022/03/07 09:05:09;;;;;;;1.33;1.23;;;5.00;49.40;;;;;;4977724;28;20504;-71
2022/03/07 09:07:35;;;;;;;1.53;1.43;;;4.80;48.70;;;;;;4977607;28;20458;-71
2022/03/07 09:10:04;;;;;;;1.70;1.60;;;4.70;49.90;;;;;;4977556;28;20450;-71
2022/03/07 09:12:31;;;;;;;1.63;1.53;;;4.90;49.50;;;;;;4977525;28;20473;-70
2022/03/07 09:14:59;;;;;;;1.30;1.20;;;4.60;49.40;;;;;;4977392;28;20450;-70
2022/03/07 09:17:26;;;;;;;1.80;1.70;;;4.50;49.80;;;;;;4976988;28;20457;-70
2022/03/07 09:19:55;;;;;;;1.53;1.43;;;4.50;50.70;;;;;;4977578;28;20472;-70
2022/03/07 09:22:22;;;;;;;1.50;1.40;;;4.60;50.30;;;;;;4977039;28;21016;-70
2022/03/07 09:24:49;;;;;;;1.40;1.30;;;4.60;49.40;;;;;;4977406;28;20465;-70
2022/03/07 09:27:18;;;;;;;1.50;1.40;;;4.40;50.40;;;;;;4977212;28;20465;-70
2022/03/07 09:29:45;;;;;;;1.20;1.10;;;4.30;50.20;;;;;;4977236;28;20449;-72
2022/03/07 09:32:11;;;;;;;1.50;1.40;;;4.60;50.50;;;;;;4977117;28;20538;-71
2022/03/07 09:34:39;;;;;;;1.83;1.73;;;4.80;49.90;;;;;;4977450;28;20450;-71
2022/03/07 09:37:06;;;;;;;1.50;1.40;;;4.80;49.60;;;;;;4976849;28;20971;-70
2022/03/07 09:39:33;;;;;;;1.30;1.20;;;4.70;49.50;;;;;;4977075;28;20504;-71
2022/03/07 09:42:00;;;;;;;1.50;1.40;;;4.70;49.70;;;;;;4976820;28;20901;-71
2022/03/07 09:44:29;;;;;;;1.87;1.27;;;5.00;49.40;;;;;;4976492;28;20856;-70
2022/03/07 09:46:56;;;;;;;1.47;1.37;;;5.10;49.70;;;;;;4976982;28;20450;-70
2022/03/07 09:49:23;;;;;;;1.30;1.20;;;5.30;49.50;;;;;;4976742;28;20501;-71
2022/03/07 09:51:51;;;;;;;1.47;1.37;;;5.30;48.60;;;;;;4976639;28;20472;-70
2022/03/07 09:54:18;;;;;;;1.40;1.30;;;5.20;49.10;;;;;;4976740;28;20458;-70
2022/03/07 09:56:44;;;;;;;1.77;1.67;;;5.00;48.90;;;;;;4976859;28;20457;-70
2022/03/07 09:59:11;;;;;;;1.40;1.30;;;5.00;49.10;;;;;;4975882;28;20937;-70
2022/03/07 10:01:39;;;;;;;1.57;1.47;;;5.00;49.20;;;;;;4975830;28;20497;-71
2022/03/07 10:04:07;;;;;;;1.60;1.50;;;4.70;49.80;;;;;;4976657;28;20453;-71
2022/03/07 10:06:34;;;;;;;1.53;1.43;;;4.50;50.20;;;;;;4976492;28;20462;-70
2022/03/07 10:09:01;;;;;;;1.60;1.50;;;4.50;50.30;;;;;;4976369;28;20825;-70
2022/03/07 10:11:29;;;;;;;1.30;1.20;;;4.70;50.70;;;;;;4976683;28;20529;-71
2022/03/07 10:13:58;;;;;;;1.83;1.73;;;4.90;49.70;;;;;;5103254;23;20501;-74
2022/03/07 10:16:35;;;;;;;1.53;1.40;;;5.00;49.40;;;;;;4996466;28;20452;-74
2022/03/07 10:19:08;;;;;;;1.47;1.37;;;4.80;49.10;;;;;;4997230;28;20418;-75
2022/03/07 10:21:35;;;;;;;1.50;1.40;;;4.40;50.30;;;;;;4997197;28;20469;-74
2022/03/07 10:24:02;;;;;;;1.30;1.20;;;4.50;51.00;;;;;;4985449;28;20849;-74
2022/03/07 10:26:35;;;;;;;1.40;1.30;;;4.40;51.00;;;;;;4976869;28;20469;-74
2022/03/07 10:29:06;;;;;;;1.60;1.50;;;4.50;51.60;;;;;;4975873;28;20922;-74
2022/03/07 10:31:33;;;;;;;1.70;1.60;;;4.40;51.30;;;;;;4975977;28;20907;-74
2022/03/07 10:34:06;;;;;;;1.80;1.70;;;4.30;51.50;;;;;;4976089;28;20478;-74
2022/03/07 10:36:34;;;;;;;1.70;1.60;;;4.30;51.80;;;;;;4975631;28;20438;-74
2022/03/07 10:39:02;;;;;;;1.97;1.83;;;4.40;51.50;;;;;;4975813;28;20454;-74
2022/03/07 10:41:36;;;;;;;1.77;1.67;;;4.40;51.50;;;;;;4975980;28;20457;-74
2022/03/07 10:44:06;;;;;;;1.40;1.30;;;4.60;51.60;;;;;;4975546;28;20469;-74
2022/03/07 10:46:33;;;;;;;1.80;1.70;;;4.60;51.00;;;;;;4975548;28;20450;-74
2022/03/07 10:48:59;;;;;;;1.80;1.70;;;4.40;51.10;;;;;;4975572;28;20949;-74
2022/03/07 10:51:28;;;;;;;1.40;1.30;;;4.40;51.70;;;;;;4975667;28;20453;-74
2022/03/07 10:53:55;;;;;;;1.70;1.60;;;4.60;51.20;;;;;;4976502;28;20482;-74
2022/03/07 10:56:24;;;;;;;1.43;1.33;;;4.80;51.10;;;;;;4975563;28;20458;-74
2022/03/07 10:58:53;;;;;;;1.80;1.70;;;4.80;50.50;;;;;;4975493;28;20446;-74
2022/03/07 11:01:30;;;;;;;1.40;1.30;;;4.60;51.00;;;;;;4975433;28;20458;-74
2022/03/07 11:03:57;;;;;;;1.97;1.57;;;4.50;51.10;;;;;;4975491;28;20526;-74
2022/03/07 11:06:26;;;;;;;1.87;1.77;;;4.70;50.90;;;;;;4975461;28;20492;-74
2022/03/07 11:08:54;;;;;;;1.50;1.40;;;4.60;50.60;;;;;;4974885;28;20904;-74
2022/03/07 11:11:22;;;;;;;1.73;1.63;;;4.50;50.80;;;;;;4974966;28;20453;-74
2022/03/07 11:13:52;;;;;;;1.57;1.47;;;4.50;50.90;;;;;;4974849;28;21038;-74
2022/03/07 11:16:22;;;;;;;1.57;1.47;;;4.60;50.70;;;;;;4975524;28;20821;-75
2022/03/07 11:18:54;;;;;;;1.40;1.30;;;4.60;51.00;;;;;;4975301;28;20545;-75
2022/03/07 11:21:21;;;;;;;1.50;1.40;;;4.70;51.50;;;;;;4976158;28;20438;-75
2022/03/07 11:23:48;;;;;;;1.40;1.30;;;5.00;50.90;;;;;;4975820;28;20497;-75
2022/03/07 11:26:20;;;;;;;1.53;1.43;;;5.10;50.60;;;;;;4975854;28;20446;-75
2022/03/07 11:28:51;;;;;;;1.73;1.63;;;5.30;50.50;;;;;;4975127;28;20449;-75
2022/03/07 11:31:21;;;;;;;1.60;1.50;;;5.00;50.60;;;;;;4975152;28;20478;-75
2022/03/07 11:33:52;;;;;;;1.60;1.50;;;4.90;50.60;;;;;;4975147;28;20465;-75
2022/03/07 11:36:21;;;;;;;1.50;1.40;;;4.70;50.70;;;;;;4975203;28;20529;-74
2022/03/07 11:38:52;;;;;;;1.70;1.60;;;4.60;50.80;;;;;;4975042;28;20501;-75
2022/03/07 11:41:27;;;;;;;1.70;1.60;;;4.60;51.00;;;;;;4974910;28;20460;-75
2022/03/07 11:43:57;;;;;;;1.70;1.60;;;4.70;50.90;;;;;;4974725;28;20996;-75
2022/03/07 11:46:26;;;;;;;1.60;1.50;;;4.50;51.10;;;;;;4974869;28;20541;-75
2022/03/07 11:48:53;;;;;;;1.60;1.50;;;4.60;51.80;;;;;;4974633;28;20453;-75
2022/03/07 11:51:21;;;;;;;1.40;1.30;;;4.80;51.60;;;;;;4974852;28;20500;-75
2022/03/07 11:53:49;;;;;;;1.50;1.40;;;5.20;50.70;;;;;;4974754;28;20480;-75
2022/03/07 11:56:20;;;;;;;1.43;1.33;;;5.40;50.10;;;;;;4974718;28;20455;-75
2022/03/07 11:58:50;;;;;;;1.77;1.67;;;5.30;49.50;;;;;;4974713;28;20819;-74
2022/03/07 12:01:18;;;;;;;1.63;1.53;;;5.20;49.50;;;;;;4974712;28;20493;-73
2022/03/07 12:03:47;;;;;;;1.70;1.60;;;5.60;49.60;;;;;;4974334;28;20489;-74
2022/03/07 12:06:15;;;;;;;1.30;1.20;;;5.80;48.60;;;;;;4974771;28;20450;-74
2022/03/07 12:08:48;;;;;;;1.50;1.40;;;5.80;47.50;;;;;;4974600;28;20449;-74
2022/03/07 12:11:27;;;;;;;1.60;1.50;;;5.70;47.70;;;;;;4974427;28;20462;-74
2022/03/07 12:14:02;;;;;;;1.23;1.13;;;5.60;47.90;;;;;;4974816;28;20514;-74
2022/03/07 12:16:33;;;;;;;1.40;1.30;;;5.60;48.30;;;;;;4974530;28;20472;-74
2022/03/07 12:19:07;;;;;;;1.53;1.43;;;5.80;47.80;;;;;;4974410;28;20442;-74
2022/03/07 12:21:35;;;;;;;1.50;1.40;;;5.90;47.50;;;;;;4974617;28;20445;-74
2022/03/07 12:24:02;;;;;;;1.77;1.67;;;5.60;47.10;;;;;;4977550;28;20540;-74
2022/03/07 12:26:29;;;;;;;1.50;1.40;;;5.30;48.00;;;;;;4979203;28;20465;-74
2022/03/07 12:28:57;;;;;;;1.40;1.30;;;5.50;48.30;;;;;;4980056;28;20445;-74
2022/03/07 12:31:25;;;;;;;1.53;1.43;;;5.50;48.00;;;;;;4980092;28;20445;-74
2022/03/07 12:33:51;;;;;;;1.20;1.10;;;5.60;48.20;;;;;;4979863;28;20546;-74
2022/03/07 12:36:18;;;;;;;1.57;1.47;;;5.90;48.50;;;;;;4979836;28;20462;-74
2022/03/07 12:38:47;;;;;;;1.30;1.20;;;6.10;47.20;;;;;;4979739;28;20532;-74
2022/03/07 12:41:15;;;;;;;1.63;1.53;;;6.10;46.20;;;;;;4978606;28;20813;-74
2022/03/07 12:43:43;;;;;;;1.30;1.20;;;6.10;46.90;;;;;;4977775;28;20489;-74
2022/03/07 12:46:12;;;;;;;1.30;1.20;;;6.40;46.50;;;;;;4977920;28;20466;-74
2022/03/07 12:48:43;;;;;;;1.20;1.10;;;6.60;45.60;;;;;;4977488;28;20802;-74
2022/03/07 12:51:11;;;;;;;1.27;1.17;;;6.90;45.30;;;;;;4978151;28;20500;-75
2022/03/07 12:53:47;;;;;;;1.27;1.17;;;7.00;44.80;;;;;;4987989;28;20571;-74
2022/03/07 12:56:14;;;;;;;1.30;1.20;;;7.40;44.80;;;;;;4997501;28;20418;-74
2022/03/07 12:58:51;;;;;;;1.10;1.00;;;8.00;43.00;;;;;;4980006;28;20450;-74
2022/03/07 13:01:19;;;;;;;1.40;1.30;;;8.30;41.80;;;;;;4977977;28;20438;-74
2022/03/07 13:03:48;;;;;;;1.40;1.30;;;8.20;42.00;;;;;;4978270;28;20989;-75
2022/03/07 13:06:15;;;;;;;1.27;1.17;;;8.20;42.00;;;;;;4978522;28;20871;-75
2022/03/07 13:08:50;;;;;;;1.30;1.20;;;8.30;42.20;;;;;;4977955;28;20501;-76
2022/03/07 13:11:17;;;;;;;1.17;1.07;;;8.50;41.70;;;;;;4978485;28;20433;-74
2022/03/07 13:13:46;;;;;;;1.23;1.13;;;8.30;41.80;;;;;;4978536;28;21001;-75
2022/03/07 13:16:24;;;;;;;1.30;1.20;;;8.10;41.80;;;;;;4978211;28;20454;-75
2022/03/07 13:18:57;;;;;;;1.33;1.23;;;8.00;41.80;;;;;;4977593;28;20497;-75
2022/03/07 13:21:25;;;;;;;1.30;1.20;;;7.90;41.70;;;;;;4977892;28;20521;-74
2022/03/07 13:23:51;;;;;;;1.50;1.40;;;7.60;41.80;;;;;;4977759;28;20497;-75
2022/03/07 13:26:22;;;;;;;1.30;1.20;;;7.40;42.80;;;;;;4977386;28;20933;-75
2022/03/07 13:28:50;;;;;;;1.60;1.50;;;7.40;42.50;;;;;;4978442;28;20438;-74
2022/03/07 13:31:16;;;;;;;1.53;1.43;;;7.70;43.10;;;;;;4977729;28;20449;-75
2022/03/07 13:33:45;;;;;;;1.23;1.13;;;7.80;42.20;;;;;;4977166;28;20467;-75
2022/03/07 13:36:12;;;;;;;1.30;1.20;;;8.00;42.00;;;;;;4977537;28;20476;-76
2022/03/07 13:38:40;;;;;;;1.50;1.40;;;7.90;41.60;;;;;;4977268;28;20430;-74
2022/03/07 13:41:08;;;;;;;1.20;1.10;;;7.90;41.50;;;;;;4977424;28;20980;-73
2022/03/07 13:43:36;;;;;;;1.30;1.20;;;8.20;41.70;;;;;;4976693;28;20497;-73
2022/03/07 13:46:13;;;;;;;1.30;1.20;;;8.50;41.50;;;;;;4976793;28;20460;-73
2022/03/07 13:48:40;;;;;;;1.10;1.00;;;9.00;40.60;;;;;;4976614;28;20429;-72
2022/03/07 13:51:08;;;;;;;1.23;1.13;;;8.90;40.20;;;;;;4976531;28;20450;-72
2022/03/07 13:53:36;;;;;;;1.37;1.27;;;9.00;39.90;;;;;;4976416;28;20485;-73
2022/03/07 13:56:03;;;;;;;1.33;1.23;;;9.20;39.70;;;;;;4976768;28;20865;-73
2022/03/07 13:58:33;;;;;;;1.57;1.47;;;9.60;38.80;;;;;;4976637;28;20454;-74
2022/03/07 14:01:05;;;;;;;1.20;1.10;;;9.80;38.10;;;;;;4977647;28;20443;-73
2022/03/07 14:03:32;;;;;;;1.50;1.40;;;9.30;38.30;;;;;;4976006;28;20522;-73
2022/03/07 14:05:59;;;;;;;1.40;1.30;;;9.50;38.50;;;;;;4976099;28;20465;-73
2022/03/07 14:08:33;;;;;;;1.40;1.30;;;9.90;37.80;;;;;;4976975;28;20458;-72
2022/03/07 14:11:01;;;;;;;1.37;1.27;;;10.60;36.80;;;;;;4976427;28;20439;-74
2022/03/07 14:13:37;;;;;;;1.30;1.20;;;11.50;36.60;;;;;;4976043;28;20480;-73
2022/03/07 14:16:05;;;;;;;1.20;1.10;;;12.30;34.80;;;;;;4976212;28;20442;-73
2022/03/07 14:18:31;;;;;;;1.37;1.27;;;12.60;34.30;;;;;;4975896;28;20953;-74
2022/03/07 14:20:58;;;;;;;1.33;1.23;;;12.90;33.50;;;;;;4976459;28;20462;-73
2022/03/07 14:23:25;;;;;;;1.10;1.00;;;13.20;33.50;;;;;;4976139;28;20493;-74
2022/03/07 14:25:55;;;;;;;1.10;1.00;;;13.60;32.90;;;;;;4976183;28;20457;-74
2022/03/07 14:28:21;;;;;;;1.20;1.10;;;14.10;31.90;;;;;;4976408;28;20450;-73
2022/03/07 14:30:48;;;;;;;1.40;1.30;;;13.90;31.20;;;;;;4975817;28;20949;-74
2022/03/07 14:33:15;;;;;;;1.37;1.27;;;13.70;31.40;;;;;;4975624;28;20515;-74
2022/03/07 14:35:42;;;;;;;1.20;1.10;;;13.60;32.00;;;;;;4975950;28;20446;-74
2022/03/07 14:38:08;;;;;;;1.40;1.30;;;14.30;31.60;;;;;;4975826;28;20968;-75
2022/03/07 14:40:36;;;;;;;1.10;1.00;;;14.50;31.30;;;;;;4975608;28;20480;-74
2022/03/07 14:43:05;;;;;;;1.07;0.97;;;14.60;31.20;;;;;;4975556;28;22296;-73
2022/03/07 14:45:31;;;;;;;1.47;1.37;;;14.50;30.80;;;;;;4975006;28;20946;-73
2022/03/07 14:47:58;;;;;;;1.20;1.10;;;13.30;31.80;;;;;;4975650;28;20450;-74
2022/03/07 14:50:26;;;;;;;1.20;1.10;;;13.20;32.80;;;;;;4975643;28;20477;-74
2022/03/07 14:52:53;;;;;;;1.13;1.03;;;13.90;32.40;;;;;;4975660;28;20441;-74
2022/03/07 14:55:21;;;;;;;1.33;1.23;;;14.10;31.70;;;;;;4975533;28;20871;-74
2022/03/07 14:57:49;;;;;;;1.30;1.20;;;13.70;32.00;;;;;;4975508;28;20446;-75
2022/03/07 15:00:20;;;;;;;1.40;1.30;;;14.00;31.80;;;;;;4975207;28;20450;-74
2022/03/07 15:02:46;;;;;;;1.10;1.00;;;14.10;32.00;;;;;;4976657;28;20504;-74
2022/03/07 15:05:13;;;;;;;1.10;1.00;;;13.90;31.40;;;;;;4975842;28;20442;-74
2022/03/07 15:07:40;;;;;;;1.40;1.30;;;13.60;31.90;;;;;;4976141;28;20493;-74
2022/03/07 15:10:07;;;;;;;1.33;1.23;;;13.90;31.80;;;;;;4976057;28;20505;-74
2022/03/07 15:12:34;;;;;;;1.10;1.00;;;13.10;32.20;;;;;;4974998;28;20945;-73
2022/03/07 15:15:01;;;;;;;1.00;0.90;;;13.20;32.80;;;;;;4974985;28;20482;-74
2022/03/07 15:17:29;;;;;;;1.40;1.30;;;13.30;32.60;;;;;;4975473;28;20574;-74
2022/03/07 15:19:57;;;;;;;1.10;1.00;;;13.70;32.10;;;;;;4975295;28;20475;-73
2022/03/07 15:22:25;;;;;;;1.10;1.00;;;13.80;31.60;;;;;;4975194;28;20457;-74
2022/03/07 15:24:51;;;;;;;1.30;1.20;;;13.60;32.10;;;;;;4974644;28;20494;-72
2022/03/07 15:27:20;;;;;;;1.30;1.20;;;13.60;32.30;;;;;;4975123;28;20553;-74
2022/03/07 15:29:46;;;;;;;1.37;1.27;;;13.40;32.10;;;;;;4975069;28;20532;-73
2022/03/07 15:32:14;;;;;;;1.30;1.20;;;13.10;32.40;;;;;;4974947;28;20505;-74
2022/03/07 15:34:42;;;;;;;1.50;1.40;;;12.40;32.90;;;;;;4974963;28;20481;-74
2022/03/07 15:37:09;;;;;;;1.43;1.33;;;11.60;34.30;;;;;;4974980;28;20445;-74
2022/03/07 15:39:36;;;;;;;1.47;1.37;;;11.00;35.20;;;;;;4974774;28;20943;-74
2022/03/07 15:42:03;;;;;;;1.53;1.43;;;10.30;36.10;;;;;;4975084;28;20456;-73
2022/03/07 15:44:32;;;;;;;1.60;1.50;;;10.10;36.90;;;;;;4974744;28;20489;-73
2022/03/07 15:46:58;;;;;;;1.40;1.30;;;10.00;36.70;;;;;;4974884;28;20534;-73
2022/03/07 15:49:25;;;;;;;1.50;1.40;;;9.30;37.70;;;;;;4975389;28;20508;-73
2022/03/07 15:51:54;;;;;;;1.83;1.10;;;9.20;38.50;;;;;;4974855;28;20463;-74
2022/03/07 15:54:21;;;;;;;1.33;1.23;;;9.20;38.50;;;;;;4974964;28;20477;-73
2022/03/07 15:56:48;;;;;;;1.40;1.30;;;8.90;38.90;;;;;;4974926;28;20934;-73
2022/03/07 15:59:16;;;;;;;1.40;1.30;;;8.70;39.50;;;;;;4979001;28;20461;-73
2022/03/07 16:01:43;;;;;;;1.40;1.30;;;8.00;40.40;;;;;;4978835;28;20461;-74
2022/03/07 16:04:13;;;;;;;1.60;1.50;;;7.30;41.90;;;;;;4978443;28;20552;-73
2022/03/07 16:06:40;;;;;;;1.47;1.37;;;7.00;42.60;;;;;;4978333;28;20954;-73
2022/03/07 16:09:10;;;;;;;1.87;1.50;;;6.80;42.80;;;;;;4978171;28;20942;-74
2022/03/07 16:11:37;;;;;;;1.60;1.50;;;6.70;42.80;;;;;;4978384;28;20418;-73
2022/03/07 16:14:06;;;;;;;1.50;1.40;;;6.80;43.00;;;;;;5085497;23;20528;-70
2022/03/07 16:16:33;;;;;;;1.77;1.67;;;6.70;43.00;;;;;;4997853;28;20458;-70
2022/03/07 16:19:00;;;;;;;1.70;1.60;;;6.60;43.30;;;;;;4997684;28;20888;-70
2022/03/07 16:21:27;;;;;;;1.60;1.50;;;6.70;43.40;;;;;;4997867;28;20449;-71
2022/03/07 16:23:57;;;;;;;1.63;1.53;;;6.20;44.00;;;;;;4991544;28;20485;-70
2022/03/07 16:26:29;;;;;;;1.77;1.63;;;5.90;44.60;;;;;;4978523;28;20430;-70
2022/03/07 16:28:55;;;;;;;1.60;1.50;;;5.60;45.50;;;;;;4978116;28;20564;-71
2022/03/07 16:31:22;;;;;;;1.50;1.40;;;5.30;45.80;;;;;;4978071;28;20453;-71
2022/03/07 16:33:50;;;;;;;1.73;1.63;;;5.30;46.00;;;;;;4977993;28;20462;-70
2022/03/07 16:36:16;;;;;;;1.97;1.87;;;5.10;46.20;;;;;;4978068;28;20461;-70
2022/03/07 16:38:43;;;;;;;2.23;2.13;;;5.30;46.30;;;;;;4977933;28;20454;-70
2022/03/07 16:41:10;;;;;;;1.60;1.50;;;5.50;45.90;;;;;;4977905;28;20449;-70
2022/03/07 16:43:38;;;;;;;1.70;1.60;;;5.60;45.80;;;;;;4977420;28;20997;-71
2022/03/07 16:46:05;;;;;;;1.67;1.57;;;5.80;45.70;;;;;;4977760;28;20598;-71
2022/03/07 16:48:33;;;;;;;1.87;1.77;;;5.70;45.50;;;;;;4977896;28;20458;-70
2022/03/07 16:50:59;;;;;;;1.67;1.57;;;5.50;45.90;;;;;;4977942;28;20520;-71
2022/03/07 16:53:26;;;;;;;1.50;1.40;;;5.20;46.50;;;;;;4977628;28;20504;-70
2022/03/07 16:55:53;;;;;;;1.60;1.50;;;5.00;46.80;;;;;;4977694;28;20438;-70
2022/03/07 16:58:20;;;;;;;1.70;1.60;;;5.00;47.10;;;;;;4977620;28;20787;-69